sensor_id;sensor_type;location;lat;lon;timestamp;temperature;humidity
53978;DHT22;39886;47.984;-1.586;2023-05-10T00:00:15;20.00;75.70
53978;DHT22;39886;47.984;-1.586;2023-05-10T00:02:41;20.00;75.70
53978;DHT22;39886;47.984;-1.586;2023-05-10T00:05:07;20.00;75.70
53978;DHT22;39886;47.984;-1.586;2023-05-10T00:07:32;20.00;75.70
53978;DHT22;39886;47.984;-1.586;2023-05-10T00:09:58;20.00;75.70
53978;DHT22;39886;47.984;-1.586;2023-05-10T00:12:24;20.00;75.70
53978;DHT22;39886;47.984;-1.586;2023-05-10T00:14:50;20.00;75.70
53978;DHT22;39886;47.984;-1.586;2023-05-10T00:17:15;20.00;75.70
53978;DHT22;39886;47.984;-1.586;2023-05-10T00:19:41;19.90;75.70
53978;DHT22;39886;47.984;-1.586;2023-05-10T00:22:07;20.00;75.70
53978;DHT22;39886;47.984;-1.586;2023-05-10T00:24:32;20.00;75.70
53978;DHT22;39886;47.984;-1.586;2023-05-10T00:26:58;20.00;75.70
53978;DHT22;39886;47.984;-1.586;2023-05-10T00:29:24;19.90;75.70
53978;DHT22;39886;47.984;-1.586;2023-05-10T00:31:50;19.90;75.70
53978;DHT22;39886;47.984;-1.586;2023-05-10T00:34:15;19.90;75.60
53978;DHT22;39886;47.984;-1.586;2023-05-10T00:36:41;19.90;75.70
53978;DHT22;39886;47.984;-1.586;2023-05-10T00:39:07;19.90;75.70
53978;DHT22;39886;47.984;-1.586;2023-05-10T00:41:33;19.90;75.60
53978;DHT22;39886;47.984;-1.586;2023-05-10T00:43:59;19.90;75.70
53978;DHT22;39886;47.984;-1.586;2023-05-10T00:46:26;19.80;75.60
53978;DHT22;39886;47.984;-1.586;2023-05-10T00:48:52;19.90;75.70
53978;DHT22;39886;47.984;-1.586;2023-05-10T00:51:18;19.90;75.70
53978;DHT22;39886;47.984;-1.586;2023-05-10T00:53:45;19.90;75.60
53978;DHT22;39886;47.984;-1.586;2023-05-10T00:56:12;19.90;75.60
53978;DHT22;39886;47.984;-1.586;2023-05-10T00:58:42;19.90;75.60
53978;DHT22;39886;47.984;-1.586;2023-05-10T01:01:08;19.90;75.60
53978;DHT22;39886;47.984;-1.586;2023-05-10T01:03:35;19.80;75.50
53978;DHT22;39886;47.984;-1.586;2023-05-10T01:06:01;19.80;75.50
53978;DHT22;39886;47.984;-1.586;2023-05-10T01:08:27;19.80;75.50
53978;DHT22;39886;47.984;-1.586;2023-05-10T01:10:54;19.80;75.60
53978;DHT22;39886;47.984;-1.586;2023-05-10T01:13:33;19.80;75.60
53978;DHT22;39886;47.984;-1.586;2023-05-10T01:16:00;19.80;75.60
53978;DHT22;39886;47.984;-1.586;2023-05-10T01:18:30;19.80;75.60
53978;DHT22;39886;47.984;-1.586;2023-05-10T01:21:06;19.80;75.60
53978;DHT22;39886;47.984;-1.586;2023-05-10T01:35:14;19.70;75.50
53978;DHT22;39886;47.984;-1.586;2023-05-10T01:37:59;19.70;75.50
53978;DHT22;39886;47.984;-1.586;2023-05-10T01:43:04;19.70;75.50
53978;DHT22;39886;47.984;-1.586;2023-05-10T01:46:02;19.70;75.50
53978;DHT22;39886;47.984;-1.586;2023-05-10T01:48:40;19.70;75.60
53978;DHT22;39886;47.984;-1.586;2023-05-10T01:51:09;19.70;75.50
53978;DHT22;39886;47.984;-1.586;2023-05-10T01:53:37;19.70;75.50
53978;DHT22;39886;47.984;-1.586;2023-05-10T01:56:05;19.70;75.50
53978;DHT22;39886;47.984;-1.586;2023-05-10T01:58:32;19.60;75.40
53978;DHT22;39886;47.984;-1.586;2023-05-10T02:01:01;19.60;75.50
53978;DHT22;39886;47.984;-1.586;2023-05-10T02:03:29;19.60;75.40
53978;DHT22;39886;47.984;-1.586;2023-05-10T02:05:57;19.60;75.40
53978;DHT22;39886;47.984;-1.586;2023-05-10T02:08:23;19.60;75.40
53978;DHT22;39886;47.984;-1.586;2023-05-10T02:10:52;19.60;75.40
53978;DHT22;39886;47.984;-1.586;2023-05-10T02:13:19;19.60;75.40
53978;DHT22;39886;47.984;-1.586;2023-05-10T02:15:48;19.60;75.40
53978;DHT22;39886;47.984;-1.586;2023-05-10T02:18:14;19.60;75.40
53978;DHT22;39886;47.984;-1.586;2023-05-10T02:20:43;19.60;75.40
53978;DHT22;39886;47.984;-1.586;2023-05-10T02:23:09;19.60;75.40
53978;DHT22;39886;47.984;-1.586;2023-05-10T02:25:37;19.60;75.40
53978;DHT22;39886;47.984;-1.586;2023-05-10T02:28:06;19.60;75.40
53978;DHT22;39886;47.984;-1.586;2023-05-10T02:30:34;19.60;75.40
53978;DHT22;39886;47.984;-1.586;2023-05-10T02:33:01;19.60;75.40
53978;DHT22;39886;47.984;-1.586;2023-05-10T02:35:29;19.60;75.40
53978;DHT22;39886;47.984;-1.586;2023-05-10T02:37:56;19.60;75.40
53978;DHT22;39886;47.984;-1.586;2023-05-10T02:40:24;19.60;75.40
53978;DHT22;39886;47.984;-1.586;2023-05-10T02:42:52;19.60;75.40
53978;DHT22;39886;47.984;-1.586;2023-05-10T02:45:23;19.60;75.40
53978;DHT22;39886;47.984;-1.586;2023-05-10T02:47:50;19.60;75.40
53978;DHT22;39886;47.984;-1.586;2023-05-10T02:50:16;19.50;75.30
53978;DHT22;39886;47.984;-1.586;2023-05-10T02:52:48;19.50;75.30
53978;DHT22;39886;47.984;-1.586;2023-05-10T02:55:15;19.50;75.30
53978;DHT22;39886;47.984;-1.586;2023-05-10T02:57:50;19.50;75.20
53978;DHT22;39886;47.984;-1.586;2023-05-10T03:00:17;19.50;75.30
53978;DHT22;39886;47.984;-1.586;2023-05-10T03:02:42;19.50;75.40
53978;DHT22;39886;47.984;-1.586;2023-05-10T03:05:08;19.50;75.30
53978;DHT22;39886;47.984;-1.586;2023-05-10T03:07:34;19.50;75.30
53978;DHT22;39886;47.984;-1.586;2023-05-10T03:10:00;19.50;75.30
53978;DHT22;39886;47.984;-1.586;2023-05-10T03:20:20;19.50;75.30
53978;DHT22;39886;47.984;-1.586;2023-05-10T03:22:51;19.50;75.30
53978;DHT22;39886;47.984;-1.586;2023-05-10T03:25:18;19.50;75.20
53978;DHT22;39886;47.984;-1.586;2023-05-10T03:27:46;19.50;75.30
53978;DHT22;39886;47.984;-1.586;2023-05-10T03:30:13;19.50;75.20
53978;DHT22;39886;47.984;-1.586;2023-05-10T03:32:39;19.40;75.20
53978;DHT22;39886;47.984;-1.586;2023-05-10T03:35:12;19.40;75.10
53978;DHT22;39886;47.984;-1.586;2023-05-10T03:37:39;19.40;75.20
53978;DHT22;39886;47.984;-1.586;2023-05-10T03:40:06;19.40;75.10
53978;DHT22;39886;47.984;-1.586;2023-05-10T03:42:32;19.40;75.10
53978;DHT22;39886;47.984;-1.586;2023-05-10T03:44:57;19.40;75.10
53978;DHT22;39886;47.984;-1.586;2023-05-10T03:47:23;19.40;75.10
53978;DHT22;39886;47.984;-1.586;2023-05-10T03:49:49;19.40;75.10
53978;DHT22;39886;47.984;-1.586;2023-05-10T03:52:15;19.40;75.10
53978;DHT22;39886;47.984;-1.586;2023-05-10T03:54:40;19.40;75.10
53978;DHT22;39886;47.984;-1.586;2023-05-10T03:57:06;19.40;75.10
53978;DHT22;39886;47.984;-1.586;2023-05-10T03:59:32;19.40;75.00
53978;DHT22;39886;47.984;-1.586;2023-05-10T04:01:58;19.40;75.00
53978;DHT22;39886;47.984;-1.586;2023-05-10T04:04:23;19.40;75.00
53978;DHT22;39886;47.984;-1.586;2023-05-10T04:06:49;19.40;75.00
53978;DHT22;39886;47.984;-1.586;2023-05-10T04:09:15;19.40;75.00
53978;DHT22;39886;47.984;-1.586;2023-05-10T04:11:42;19.40;75.00
53978;DHT22;39886;47.984;-1.586;2023-05-10T04:14:08;19.40;75.00
53978;DHT22;39886;47.984;-1.586;2023-05-10T04:16:34;19.40;75.00
53978;DHT22;39886;47.984;-1.586;2023-05-10T04:19:00;19.30;74.90
53978;DHT22;39886;47.984;-1.586;2023-05-10T04:21:25;19.40;75.00
53978;DHT22;39886;47.984;-1.586;2023-05-10T04:23:51;19.40;75.00
53978;DHT22;39886;47.984;-1.586;2023-05-10T04:26:17;19.30;74.90
53978;DHT22;39886;47.984;-1.586;2023-05-10T04:28:43;19.40;75.00
53978;DHT22;39886;47.984;-1.586;2023-05-10T04:31:09;19.30;75.60
53978;DHT22;39886;47.984;-1.586;2023-05-10T04:33:36;19.30;74.90
53978;DHT22;39886;47.984;-1.586;2023-05-10T04:36:02;19.30;75.00
53978;DHT22;39886;47.984;-1.586;2023-05-10T04:38:28;19.30;74.90
53978;DHT22;39886;47.984;-1.586;2023-05-10T04:40:54;19.40;75.00
53978;DHT22;39886;47.984;-1.586;2023-05-10T04:43:19;19.30;74.90
53978;DHT22;39886;47.984;-1.586;2023-05-10T04:45:46;19.30;74.90
53978;DHT22;39886;47.984;-1.586;2023-05-10T04:48:11;19.30;74.90
53978;DHT22;39886;47.984;-1.586;2023-05-10T04:50:38;19.30;74.80
53978;DHT22;39886;47.984;-1.586;2023-05-10T04:53:04;19.30;74.90
53978;DHT22;39886;47.984;-1.586;2023-05-10T04:55:30;19.40;74.80
53978;DHT22;39886;47.984;-1.586;2023-05-10T04:57:56;19.50;74.40
53978;DHT22;39886;47.984;-1.586;2023-05-10T05:00:23;19.60;74.00
53978;DHT22;39886;47.984;-1.586;2023-05-10T05:02:49;19.80;73.60
53978;DHT22;39886;47.984;-1.586;2023-05-10T05:05:14;19.90;73.20
53978;DHT22;39886;47.984;-1.586;2023-05-10T05:07:40;20.00;72.80
53978;DHT22;39886;47.984;-1.586;2023-05-10T05:10:07;20.10;72.40
53978;DHT22;39886;47.984;-1.586;2023-05-10T05:12:34;20.20;72.20
53978;DHT22;39886;47.984;-1.586;2023-05-10T05:15:00;20.30;71.90
53978;DHT22;39886;47.984;-1.586;2023-05-10T05:17:26;20.40;71.60
53978;DHT22;39886;47.984;-1.586;2023-05-10T05:19:51;20.50;71.40
53978;DHT22;39886;47.984;-1.586;2023-05-10T05:22:17;20.60;71.20
53978;DHT22;39886;47.984;-1.586;2023-05-10T05:24:44;20.60;71.00
53978;DHT22;39886;47.984;-1.586;2023-05-10T05:27:11;20.70;70.70
53978;DHT22;39886;47.984;-1.586;2023-05-10T05:29:36;20.80;70.60
53978;DHT22;39886;47.984;-1.586;2023-05-10T05:32:02;20.90;70.30
53978;DHT22;39886;47.984;-1.586;2023-05-10T05:34:28;20.90;70.10
53978;DHT22;39886;47.984;-1.586;2023-05-10T05:36:54;21.00;70.00
53978;DHT22;39886;47.984;-1.586;2023-05-10T05:39:20;21.00;69.90
53978;DHT22;39886;47.984;-1.586;2023-05-10T05:41:46;21.10;69.70
53978;DHT22;39886;47.984;-1.586;2023-05-10T05:44:15;21.10;69.40
53978;DHT22;39886;47.984;-1.586;2023-05-10T05:46:41;21.20;69.20
53978;DHT22;39886;47.984;-1.586;2023-05-10T05:49:06;21.20;69.10
53978;DHT22;39886;47.984;-1.586;2023-05-10T05:51:32;21.30;68.90
53978;DHT22;39886;47.984;-1.586;2023-05-10T05:53:58;21.30;68.70
53978;DHT22;39886;47.984;-1.586;2023-05-10T05:56:24;21.40;68.70
53978;DHT22;39886;47.984;-1.586;2023-05-10T05:58:50;21.40;68.70
53978;DHT22;39886;47.984;-1.586;2023-05-10T06:01:16;21.40;68.40
53978;DHT22;39886;47.984;-1.586;2023-05-10T06:03:42;21.50;68.40
53978;DHT22;39886;47.984;-1.586;2023-05-10T06:06:08;21.50;68.20
53978;DHT22;39886;47.984;-1.586;2023-05-10T06:08:34;21.60;68.10
53978;DHT22;39886;47.984;-1.586;2023-05-10T06:11:00;21.60;68.20
53978;DHT22;39886;47.984;-1.586;2023-05-10T06:13:26;21.60;67.90
53978;DHT22;39886;47.984;-1.586;2023-05-10T06:15:58;21.70;67.80
53978;DHT22;39886;47.984;-1.586;2023-05-10T06:18:24;21.70;67.70
53978;DHT22;39886;47.984;-1.586;2023-05-10T06:20:50;21.80;67.90
53978;DHT22;39886;47.984;-1.586;2023-05-10T06:23:17;21.80;67.60
53978;DHT22;39886;47.984;-1.586;2023-05-10T06:25:42;21.90;67.30
53978;DHT22;39886;47.984;-1.586;2023-05-10T06:28:08;21.90;67.10
53978;DHT22;39886;47.984;-1.586;2023-05-10T06:30:36;21.90;67.20
53978;DHT22;39886;47.984;-1.586;2023-05-10T06:33:02;21.80;67.40
53978;DHT22;39886;47.984;-1.586;2023-05-10T06:35:28;21.70;67.90
53978;DHT22;39886;47.984;-1.586;2023-05-10T06:37:54;21.60;68.10
53978;DHT22;39886;47.984;-1.586;2023-05-10T06:40:20;21.60;68.30
53978;DHT22;39886;47.984;-1.586;2023-05-10T06:42:47;21.50;68.50
53978;DHT22;39886;47.984;-1.586;2023-05-10T06:45:14;21.40;68.70
53978;DHT22;39886;47.984;-1.586;2023-05-10T06:47:40;21.40;68.80
53978;DHT22;39886;47.984;-1.586;2023-05-10T06:50:07;21.40;69.00
53978;DHT22;39886;47.984;-1.586;2023-05-10T06:52:33;21.30;69.10
53978;DHT22;39886;47.984;-1.586;2023-05-10T06:54:59;21.30;69.30
53978;DHT22;39886;47.984;-1.586;2023-05-10T06:57:25;21.20;69.30
53978;DHT22;39886;47.984;-1.586;2023-05-10T06:59:52;21.20;69.40
53978;DHT22;39886;47.984;-1.586;2023-05-10T07:02:17;21.20;69.50
53978;DHT22;39886;47.984;-1.586;2023-05-10T07:04:43;21.20;69.50
53978;DHT22;39886;47.984;-1.586;2023-05-10T07:07:09;21.20;69.60
53978;DHT22;39886;47.984;-1.586;2023-05-10T07:09:35;21.20;69.70
53978;DHT22;39886;47.984;-1.586;2023-05-10T07:12:01;21.10;69.70
53978;DHT22;39886;47.984;-1.586;2023-05-10T07:14:27;21.10;69.90
53978;DHT22;39886;47.984;-1.586;2023-05-10T07:16:53;21.20;69.80
53978;DHT22;39886;47.984;-1.586;2023-05-10T07:19:19;21.10;69.90
53978;DHT22;39886;47.984;-1.586;2023-05-10T07:21:45;21.20;70.00
53978;DHT22;39886;47.984;-1.586;2023-05-10T07:24:11;21.20;70.20
53978;DHT22;39886;47.984;-1.586;2023-05-10T07:26:37;21.20;70.30
53978;DHT22;39886;47.984;-1.586;2023-05-10T07:29:02;21.20;70.50
53978;DHT22;39886;47.984;-1.586;2023-05-10T07:31:28;21.20;70.50
53978;DHT22;39886;47.984;-1.586;2023-05-10T07:33:54;21.20;70.80
53978;DHT22;39886;47.984;-1.586;2023-05-10T07:36:20;21.20;70.80
53978;DHT22;39886;47.984;-1.586;2023-05-10T07:38:45;21.20;70.90
53978;DHT22;39886;47.984;-1.586;2023-05-10T07:41:12;21.20;70.90
53978;DHT22;39886;47.984;-1.586;2023-05-10T07:43:38;21.20;71.00
53978;DHT22;39886;47.984;-1.586;2023-05-10T07:46:03;21.20;71.10
53978;DHT22;39886;47.984;-1.586;2023-05-10T07:48:30;21.20;71.20
53978;DHT22;39886;47.984;-1.586;2023-05-10T07:50:56;21.20;71.30
53978;DHT22;39886;47.984;-1.586;2023-05-10T07:53:22;21.20;71.40
53978;DHT22;39886;47.984;-1.586;2023-05-10T07:55:51;21.20;71.20
53978;DHT22;39886;47.984;-1.586;2023-05-10T07:58:19;21.20;71.30
53978;DHT22;39886;47.984;-1.586;2023-05-10T08:00:45;21.20;71.40
53978;DHT22;39886;47.984;-1.586;2023-05-10T08:03:11;21.20;71.30
53978;DHT22;39886;47.984;-1.586;2023-05-10T08:05:37;21.20;71.30
53978;DHT22;39886;47.984;-1.586;2023-05-10T08:08:02;21.20;71.20
53978;DHT22;39886;47.984;-1.586;2023-05-10T08:10:28;21.20;71.20
53978;DHT22;39886;47.984;-1.586;2023-05-10T08:12:54;21.20;71.30
53978;DHT22;39886;47.984;-1.586;2023-05-10T08:15:20;21.20;71.40
53978;DHT22;39886;47.984;-1.586;2023-05-10T08:17:45;21.20;71.90
53978;DHT22;39886;47.984;-1.586;2023-05-10T08:20:11;21.20;71.30
53978;DHT22;39886;47.984;-1.586;2023-05-10T08:22:38;21.10;71.40
53978;DHT22;39886;47.984;-1.586;2023-05-10T08:25:04;21.20;71.50
53978;DHT22;39886;47.984;-1.586;2023-05-10T08:27:30;21.10;71.40
53978;DHT22;39886;47.984;-1.586;2023-05-10T08:29:56;21.10;71.50
53978;DHT22;39886;47.984;-1.586;2023-05-10T08:32:21;21.10;71.50
53978;DHT22;39886;47.984;-1.586;2023-05-10T08:34:47;21.20;71.50
53978;DHT22;39886;47.984;-1.586;2023-05-10T08:37:13;21.20;71.70
53978;DHT22;39886;47.984;-1.586;2023-05-10T08:39:39;21.20;72.40
53978;DHT22;39886;47.984;-1.586;2023-05-10T08:42:05;21.10;71.70
53978;DHT22;39886;47.984;-1.586;2023-05-10T08:44:35;21.20;71.80
53978;DHT22;39886;47.984;-1.586;2023-05-10T08:47:06;21.10;71.80
53978;DHT22;39886;47.984;-1.586;2023-05-10T08:49:32;21.10;71.80
53978;DHT22;39886;47.984;-1.586;2023-05-10T08:52:04;21.20;71.80
53978;DHT22;39886;47.984;-1.586;2023-05-10T08:54:32;21.20;71.80
53978;DHT22;39886;47.984;-1.586;2023-05-10T08:56:58;21.20;71.70
53978;DHT22;39886;47.984;-1.586;2023-05-10T08:59:24;21.20;71.60
53978;DHT22;39886;47.984;-1.586;2023-05-10T09:01:50;21.20;71.70
53978;DHT22;39886;47.984;-1.586;2023-05-10T09:04:16;21.20;71.60
53978;DHT22;39886;47.984;-1.586;2023-05-10T09:06:42;21.30;71.70
53978;DHT22;39886;47.984;-1.586;2023-05-10T09:09:08;21.30;71.80
53978;DHT22;39886;47.984;-1.586;2023-05-10T09:11:34;21.30;71.80
53978;DHT22;39886;47.984;-1.586;2023-05-10T09:14:01;21.30;71.80
53978;DHT22;39886;47.984;-1.586;2023-05-10T09:16:26;21.30;71.90
53978;DHT22;39886;47.984;-1.586;2023-05-10T09:18:52;21.30;72.00
53978;DHT22;39886;47.984;-1.586;2023-05-10T09:21:19;21.30;72.00
53978;DHT22;39886;47.984;-1.586;2023-05-10T09:23:46;21.30;72.00
53978;DHT22;39886;47.984;-1.586;2023-05-10T09:26:12;21.40;72.00
53978;DHT22;39886;47.984;-1.586;2023-05-10T09:28:55;21.40;72.20
53978;DHT22;39886;47.984;-1.586;2023-05-10T09:31:21;21.40;72.00
53978;DHT22;39886;47.984;-1.586;2023-05-10T09:33:49;21.40;72.00
53978;DHT22;39886;47.984;-1.586;2023-05-10T09:36:15;21.40;71.90
53978;DHT22;39886;47.984;-1.586;2023-05-10T09:38:48;21.40;72.00
53978;DHT22;39886;47.984;-1.586;2023-05-10T09:41:21;21.40;72.10
53978;DHT22;39886;47.984;-1.586;2023-05-10T09:43:48;21.40;72.20
53978;DHT22;39886;47.984;-1.586;2023-05-10T09:46:15;21.30;72.10
53978;DHT22;39886;47.984;-1.586;2023-05-10T09:48:45;21.40;72.20
53978;DHT22;39886;47.984;-1.586;2023-05-10T09:51:19;21.40;72.30
53978;DHT22;39886;47.984;-1.586;2023-05-10T09:53:45;21.40;72.00
53978;DHT22;39886;47.984;-1.586;2023-05-10T09:56:11;21.40;72.00
53978;DHT22;39886;47.984;-1.586;2023-05-10T09:58:37;21.40;72.00
53978;DHT22;39886;47.984;-1.586;2023-05-10T10:01:11;21.40;72.10
53978;DHT22;39886;47.984;-1.586;2023-05-10T10:03:42;21.40;72.00
53978;DHT22;39886;47.984;-1.586;2023-05-10T10:06:08;21.50;71.90
53978;DHT22;39886;47.984;-1.586;2023-05-10T10:08:34;21.50;72.60
53978;DHT22;39886;47.984;-1.586;2023-05-10T10:11:00;21.50;72.00
53978;DHT22;39886;47.984;-1.586;2023-05-10T10:13:27;21.50;72.00
53978;DHT22;39886;47.984;-1.586;2023-05-10T10:15:54;21.50;72.10
53978;DHT22;39886;47.984;-1.586;2023-05-10T10:18:20;21.50;72.10
53978;DHT22;39886;47.984;-1.586;2023-05-10T10:20:53;21.50;72.10
53978;DHT22;39886;47.984;-1.586;2023-05-10T10:23:19;21.50;72.10
53978;DHT22;39886;47.984;-1.586;2023-05-10T10:25:46;21.50;72.00
53978;DHT22;39886;47.984;-1.586;2023-05-10T10:28:23;21.50;71.90
53978;DHT22;39886;47.984;-1.586;2023-05-10T10:30:51;21.50;72.00
53978;DHT22;39886;47.984;-1.586;2023-05-10T10:35:59;21.50;72.00
53978;DHT22;39886;47.984;-1.586;2023-05-10T10:38:27;21.50;72.00
53978;DHT22;39886;47.984;-1.586;2023-05-10T10:41:20;21.50;72.00
53978;DHT22;39886;47.984;-1.586;2023-05-10T10:49:42;21.40;72.20
53978;DHT22;39886;47.984;-1.586;2023-05-10T10:52:33;21.40;72.20
53978;DHT22;39886;47.984;-1.586;2023-05-10T10:55:20;21.40;72.40
53978;DHT22;39886;47.984;-1.586;2023-05-10T10:57:55;21.30;72.30
53978;DHT22;39886;47.984;-1.586;2023-05-10T11:03:10;21.30;72.20
53978;DHT22;39886;47.984;-1.586;2023-05-10T11:05:47;21.40;72.30
53978;DHT22;39886;47.984;-1.586;2023-05-10T11:10:40;21.40;72.10
53978;DHT22;39886;47.984;-1.586;2023-05-10T11:13:07;21.40;72.00
53978;DHT22;39886;47.984;-1.586;2023-05-10T11:15:38;21.40;71.90
53978;DHT22;39886;47.984;-1.586;2023-05-10T11:18:21;21.40;71.90
53978;DHT22;39886;47.984;-1.586;2023-05-10T11:23:22;21.40;71.90
53978;DHT22;39886;47.984;-1.586;2023-05-10T11:25:48;21.40;72.00
53978;DHT22;39886;47.984;-1.586;2023-05-10T11:28:16;21.40;72.00
53978;DHT22;39886;47.984;-1.586;2023-05-10T11:30:44;21.40;72.00
53978;DHT22;39886;47.984;-1.586;2023-05-10T11:33:14;21.40;72.10
53978;DHT22;39886;47.984;-1.586;2023-05-10T11:35:41;21.40;72.10
53978;DHT22;39886;47.984;-1.586;2023-05-10T11:38:08;21.40;72.20
53978;DHT22;39886;47.984;-1.586;2023-05-10T11:40:35;21.40;72.20
53978;DHT22;39886;47.984;-1.586;2023-05-10T11:43:02;21.30;72.20
53978;DHT22;39886;47.984;-1.586;2023-05-10T11:45:28;21.30;72.30
53978;DHT22;39886;47.984;-1.586;2023-05-10T11:47:58;21.30;72.20
53978;DHT22;39886;47.984;-1.586;2023-05-10T11:50:24;21.30;72.20
53978;DHT22;39886;47.984;-1.586;2023-05-10T11:53:00;21.30;72.20
53978;DHT22;39886;47.984;-1.586;2023-05-10T11:55:26;21.30;72.30
53978;DHT22;39886;47.984;-1.586;2023-05-10T11:57:55;21.30;72.30
53978;DHT22;39886;47.984;-1.586;2023-05-10T12:00:25;21.30;72.30
53978;DHT22;39886;47.984;-1.586;2023-05-10T12:02:51;21.40;72.40
53978;DHT22;39886;47.984;-1.586;2023-05-10T12:05:17;21.30;72.40
53978;DHT22;39886;47.984;-1.586;2023-05-10T12:07:43;21.40;72.40
53978;DHT22;39886;47.984;-1.586;2023-05-10T12:10:10;21.40;72.30
53978;DHT22;39886;47.984;-1.586;2023-05-10T12:12:44;21.40;72.30
53978;DHT22;39886;47.984;-1.586;2023-05-10T12:15:16;21.40;72.20
53978;DHT22;39886;47.984;-1.586;2023-05-10T12:17:44;21.40;72.20
53978;DHT22;39886;47.984;-1.586;2023-05-10T12:20:23;21.40;72.40
53978;DHT22;39886;47.984;-1.586;2023-05-10T12:22:51;21.40;72.30
53978;DHT22;39886;47.984;-1.586;2023-05-10T12:25:23;21.40;72.50
53978;DHT22;39886;47.984;-1.586;2023-05-10T12:27:53;21.40;72.40
53978;DHT22;39886;47.984;-1.586;2023-05-10T12:30:25;21.40;72.40
53978;DHT22;39886;47.984;-1.586;2023-05-10T12:32:52;21.40;72.40
53978;DHT22;39886;47.984;-1.586;2023-05-10T12:35:18;21.40;72.40
53978;DHT22;39886;47.984;-1.586;2023-05-10T12:37:47;21.30;72.20
53978;DHT22;39886;47.984;-1.586;2023-05-10T12:40:13;21.40;72.40
53978;DHT22;39886;47.984;-1.586;2023-05-10T12:42:39;21.40;72.30
53978;DHT22;39886;47.984;-1.586;2023-05-10T12:45:06;21.40;72.40
53978;DHT22;39886;47.984;-1.586;2023-05-10T12:47:33;21.40;72.50
53978;DHT22;39886;47.984;-1.586;2023-05-10T12:50:00;21.40;72.50
53978;DHT22;39886;47.984;-1.586;2023-05-10T12:52:27;21.40;72.50
53978;DHT22;39886;47.984;-1.586;2023-05-10T12:54:53;21.30;72.60
53978;DHT22;39886;47.984;-1.586;2023-05-10T12:57:22;21.40;72.60
53978;DHT22;39886;47.984;-1.586;2023-05-10T12:59:48;21.40;72.70
53978;DHT22;39886;47.984;-1.586;2023-05-10T13:02:13;21.40;72.70
53978;DHT22;39886;47.984;-1.586;2023-05-10T13:04:40;21.40;72.70
53978;DHT22;39886;47.984;-1.586;2023-05-10T13:07:07;21.40;72.70
53978;DHT22;39886;47.984;-1.586;2023-05-10T13:09:33;21.40;72.70
53978;DHT22;39886;47.984;-1.586;2023-05-10T13:11:59;21.30;72.70
53978;DHT22;39886;47.984;-1.586;2023-05-10T13:14:25;21.40;72.70
53978;DHT22;39886;47.984;-1.586;2023-05-10T13:16:50;21.40;72.80
53978;DHT22;39886;47.984;-1.586;2023-05-10T13:19:17;21.40;72.80
53978;DHT22;39886;47.984;-1.586;2023-05-10T13:21:43;21.40;72.90
53978;DHT22;39886;47.984;-1.586;2023-05-10T13:24:10;21.40;72.90
53978;DHT22;39886;47.984;-1.586;2023-05-10T13:26:39;21.40;72.90
53978;DHT22;39886;47.984;-1.586;2023-05-10T13:29:05;21.40;72.90
53978;DHT22;39886;47.984;-1.586;2023-05-10T13:31:31;21.40;72.80
53978;DHT22;39886;47.984;-1.586;2023-05-10T13:33:57;21.40;72.90
53978;DHT22;39886;47.984;-1.586;2023-05-10T13:36:23;21.40;72.90
53978;DHT22;39886;47.984;-1.586;2023-05-10T13:38:48;21.50;73.00
53978;DHT22;39886;47.984;-1.586;2023-05-10T13:41:14;21.50;72.90
53978;DHT22;39886;47.984;-1.586;2023-05-10T13:43:40;21.50;72.90
53978;DHT22;39886;47.984;-1.586;2023-05-10T13:46:05;21.50;72.90
53978;DHT22;39886;47.984;-1.586;2023-05-10T13:48:31;21.50;72.90
53978;DHT22;39886;47.984;-1.586;2023-05-10T13:50:57;21.60;72.90
53978;DHT22;39886;47.984;-1.586;2023-05-10T13:53:23;21.60;72.90
53978;DHT22;39886;47.984;-1.586;2023-05-10T13:55:48;21.60;72.90
53978;DHT22;39886;47.984;-1.586;2023-05-10T13:58:14;21.60;73.00
53978;DHT22;39886;47.984;-1.586;2023-05-10T14:00:40;21.60;73.00
53978;DHT22;39886;47.984;-1.586;2023-05-10T14:03:05;21.60;73.20
53978;DHT22;39886;47.984;-1.586;2023-05-10T14:05:32;21.50;73.20
53978;DHT22;39886;47.984;-1.586;2023-05-10T14:07:58;21.50;73.30
53978;DHT22;39886;47.984;-1.586;2023-05-10T14:10:23;21.50;73.30
53978;DHT22;39886;47.984;-1.586;2023-05-10T14:12:50;21.50;73.40
53978;DHT22;39886;47.984;-1.586;2023-05-10T14:15:16;21.50;73.40
53978;DHT22;39886;47.984;-1.586;2023-05-10T14:17:41;21.50;73.40
53978;DHT22;39886;47.984;-1.586;2023-05-10T14:20:08;21.50;73.40
53978;DHT22;39886;47.984;-1.586;2023-05-10T14:22:34;21.60;73.50
53978;DHT22;39886;47.984;-1.586;2023-05-10T14:25:00;21.60;73.50
53978;DHT22;39886;47.984;-1.586;2023-05-10T14:27:26;21.60;73.50
53978;DHT22;39886;47.984;-1.586;2023-05-10T14:29:52;21.60;73.50
53978;DHT22;39886;47.984;-1.586;2023-05-10T14:32:18;21.60;73.50
53978;DHT22;39886;47.984;-1.586;2023-05-10T14:34:44;21.60;73.50
53978;DHT22;39886;47.984;-1.586;2023-05-10T14:37:11;21.60;73.40
53978;DHT22;39886;47.984;-1.586;2023-05-10T14:39:37;21.60;73.40
53978;DHT22;39886;47.984;-1.586;2023-05-10T14:42:03;21.70;73.50
53978;DHT22;39886;47.984;-1.586;2023-05-10T14:44:29;21.60;73.50
53978;DHT22;39886;47.984;-1.586;2023-05-10T14:46:55;21.70;73.60
53978;DHT22;39886;47.984;-1.586;2023-05-10T14:49:22;21.60;73.60
53978;DHT22;39886;47.984;-1.586;2023-05-10T14:51:50;21.70;73.60
53978;DHT22;39886;47.984;-1.586;2023-05-10T14:54:16;21.70;73.70
53978;DHT22;39886;47.984;-1.586;2023-05-10T14:56:42;21.70;73.70
53978;DHT22;39886;47.984;-1.586;2023-05-10T14:59:08;21.60;73.60
53978;DHT22;39886;47.984;-1.586;2023-05-10T15:01:34;21.70;73.70
53978;DHT22;39886;47.984;-1.586;2023-05-10T15:04:03;21.60;73.60
53978;DHT22;39886;47.984;-1.586;2023-05-10T15:06:33;21.60;73.70
53978;DHT22;39886;47.984;-1.586;2023-05-10T15:09:00;21.60;73.80
53978;DHT22;39886;47.984;-1.586;2023-05-10T15:11:26;21.60;73.70
53978;DHT22;39886;47.984;-1.586;2023-05-10T15:13:51;21.70;73.80
53978;DHT22;39886;47.984;-1.586;2023-05-10T15:16:17;21.70;73.80
53978;DHT22;39886;47.984;-1.586;2023-05-10T15:18:43;21.70;73.60
53978;DHT22;39886;47.984;-1.586;2023-05-10T15:21:09;21.70;73.60
53978;DHT22;39886;47.984;-1.586;2023-05-10T15:23:35;21.70;73.70
53978;DHT22;39886;47.984;-1.586;2023-05-10T15:26:01;21.70;73.60
53978;DHT22;39886;47.984;-1.586;2023-05-10T15:28:28;21.70;73.60
53978;DHT22;39886;47.984;-1.586;2023-05-10T15:30:54;21.80;73.60
53978;DHT22;39886;47.984;-1.586;2023-05-10T15:33:20;21.80;73.60
53978;DHT22;39886;47.984;-1.586;2023-05-10T15:35:46;21.80;73.50
53978;DHT22;39886;47.984;-1.586;2023-05-10T15:38:12;21.80;73.40
53978;DHT22;39886;47.984;-1.586;2023-05-10T15:40:37;21.80;73.50
53978;DHT22;39886;47.984;-1.586;2023-05-10T15:43:03;21.70;73.60
53978;DHT22;39886;47.984;-1.586;2023-05-10T15:45:30;21.70;73.80
53978;DHT22;39886;47.984;-1.586;2023-05-10T15:47:57;21.70;73.80
53978;DHT22;39886;47.984;-1.586;2023-05-10T15:50:22;21.70;73.90
53978;DHT22;39886;47.984;-1.586;2023-05-10T15:52:48;21.70;73.90